sensor_id;sensor_type;location;lat;lon;timestamp;pressure;altitude;pressure_sealevel;temperature;humidity
1926;BME280;964;42.606;23.588;2023-04-09T00:02:22;94700.25;;;29.77;25.69
1926;BME280;964;42.606;23.588;2023-04-09T00:04:49;94703.88;;;30.12;25.40
1926;BME280;964;42.606;23.588;2023-04-09T00:07:16;94698.41;;;29.97;25.50
1926;BME280;964;42.606;23.588;2023-04-09T00:09:43;94709.44;;;30.03;25.53
1926;BME280;964;42.606;23.588;2023-04-09T00:12:10;94698.22;;;29.86;25.57
1926;BME280;964;42.606;23.588;2023-04-09T00:14:37;94696.13;;;30.25;25.21
1926;BME280;964;42.606;23.588;2023-04-09T00:17:05;94704.00;;;29.64;25.90
1926;BME280;964;42.606;23.588;2023-04-09T00:19:32;94705.03;;;29.91;25.78
1926;BME280;964;42.606;23.588;2023-04-09T00:21:59;94703.63;;;29.72;26.01
1926;BME280;964;42.606;23.588;2023-04-09T00:24:26;94704.59;;;29.68;25.98
1926;BME280;964;42.606;23.588;2023-04-09T00:26:52;94709.34;;;29.97;25.81
1926;BME280;964;42.606;23.588;2023-04-09T00:29:20;94701.03;;;29.92;25.86
1926;BME280;964;42.606;23.588;2023-04-09T00:31:46;94710.41;;;29.61;26.01
1926;BME280;964;42.606;23.588;2023-04-09T00:34:14;94721.00;;;29.21;26.44
1926;BME280;964;42.606;23.588;2023-04-09T00:36:41;94720.31;;;29.35;26.38
1926;BME280;964;42.606;23.588;2023-04-09T00:39:08;94711.63;;;29.60;26.04
1926;BME280;964;42.606;23.588;2023-04-09T00:41:35;94708.91;;;29.60;25.97
1926;BME280;964;42.606;23.588;2023-04-09T00:44:02;94706.97;;;29.52;26.04
1926;BME280;964;42.606;23.588;2023-04-09T00:46:30;94706.94;;;29.37;26.03
1926;BME280;964;42.606;23.588;2023-04-09T00:48:57;94705.09;;;28.96;26.31
1926;BME280;964;42.606;23.588;2023-04-09T00:51:26;94708.75;;;29.16;25.99
1926;BME280;964;42.606;23.588;2023-04-09T00:53:54;94711.78;;;28.86;25.64
1926;BME280;964;42.606;23.588;2023-04-09T00:56:22;94705.84;;;28.63;25.73
1926;BME280;964;42.606;23.588;2023-04-09T00:58:49;94704.91;;;28.66;25.76
1926;BME280;964;42.606;23.588;2023-04-09T01:01:16;94704.41;;;28.44;25.79
1926;BME280;964;42.606;23.588;2023-04-09T01:03:43;94705.63;;;28.43;26.14
1926;BME280;964;42.606;23.588;2023-04-09T01:06:17;94713.63;;;27.87;26.69
1926;BME280;964;42.606;23.588;2023-04-09T01:08:54;94715.72;;;27.92;26.53
1926;BME280;964;42.606;23.588;2023-04-09T01:11:31;94703.03;;;27.80;26.65
1926;BME280;964;42.606;23.588;2023-04-09T01:14:05;94709.66;;;28.15;26.45
1926;BME280;964;42.606;23.588;2023-04-09T01:16:35;94712.22;;;28.18;26.34
1926;BME280;964;42.606;23.588;2023-04-09T01:19:09;94706.28;;;28.29;26.00
1926;BME280;964;42.606;23.588;2023-04-09T01:21:37;94704.72;;;28.37;25.74
1926;BME280;964;42.606;23.588;2023-04-09T01:24:20;94696.81;;;27.88;26.16
1926;BME280;964;42.606;23.588;2023-04-09T01:26:57;94705.91;;;27.85;26.23
1926;BME280;964;42.606;23.588;2023-04-09T01:29:31;94706.06;;;27.82;26.08
1926;BME280;964;42.606;23.588;2023-04-09T01:31:59;94708.75;;;27.91;26.31
1926;BME280;964;42.606;23.588;2023-04-09T01:34:28;94710.09;;;28.04;25.97
1926;BME280;964;42.606;23.588;2023-04-09T01:36:58;94708.94;;;27.78;26.17
1926;BME280;964;42.606;23.588;2023-04-09T01:39:26;94710.41;;;28.15;26.00
1926;BME280;964;42.606;23.588;2023-04-09T01:41:54;94717.72;;;28.42;25.40
1926;BME280;964;42.606;23.588;2023-04-09T01:44:22;94713.88;;;28.07;25.78
1926;BME280;964;42.606;23.588;2023-04-09T01:46:52;94719.31;;;28.25;25.54
1926;BME280;964;42.606;23.588;2023-04-09T01:49:21;94718.75;;;27.85;25.92
1926;BME280;964;42.606;23.588;2023-04-09T01:51:48;94721.81;;;27.68;26.50
1926;BME280;964;42.606;23.588;2023-04-09T01:54:15;94706.38;;;27.74;26.29
1926;BME280;964;42.606;23.588;2023-04-09T01:56:43;94709.50;;;27.91;26.35
1926;BME280;964;42.606;23.588;2023-04-09T01:59:10;94714.19;;;28.18;26.74
1926;BME280;964;42.606;23.588;2023-04-09T02:01:41;94705.97;;;28.27;25.99
1926;BME280;964;42.606;23.588;2023-04-09T02:04:16;94709.00;;;28.29;26.04
1926;BME280;964;42.606;23.588;2023-04-09T02:06:49;94717.50;;;28.13;26.16
1926;BME280;964;42.606;23.588;2023-04-09T02:09:20;94708.50;;;27.80;26.50
1926;BME280;964;42.606;23.588;2023-04-09T02:11:48;94712.72;;;27.62;26.98
1926;BME280;964;42.606;23.588;2023-04-09T02:14:17;94718.16;;;27.62;26.81
1926;BME280;964;42.606;23.588;2023-04-09T02:16:46;94726.13;;;27.29;27.39
1926;BME280;964;42.606;23.588;2023-04-09T02:19:14;94716.78;;;26.72;27.99
1926;BME280;964;42.606;23.588;2023-04-09T02:21:41;94722.31;;;26.60;28.36
1926;BME280;964;42.606;23.588;2023-04-09T02:24:08;94721.44;;;26.23;28.86
1926;BME280;964;42.606;23.588;2023-04-09T02:26:35;94714.78;;;27.04;27.79
1926;BME280;964;42.606;23.588;2023-04-09T02:29:02;94712.84;;;27.41;27.37
1926;BME280;964;42.606;23.588;2023-04-09T02:31:29;94720.50;;;26.97;27.83
1926;BME280;964;42.606;23.588;2023-04-09T02:33:56;94713.75;;;26.70;28.26
1926;BME280;964;42.606;23.588;2023-04-09T02:36:24;94711.09;;;26.49;28.39
1926;BME280;964;42.606;23.588;2023-04-09T02:38:52;94705.41;;;26.96;27.83
1926;BME280;964;42.606;23.588;2023-04-09T02:41:18;94700.31;;;27.80;26.88
1926;BME280;964;42.606;23.588;2023-04-09T02:43:45;94709.97;;;27.90;26.91
1926;BME280;964;42.606;23.588;2023-04-09T02:46:12;94708.34;;;27.83;26.99
1926;BME280;964;42.606;23.588;2023-04-09T02:48:39;94709.97;;;28.08;26.51
1926;BME280;964;42.606;23.588;2023-04-09T02:51:06;94716.28;;;28.23;26.18
1926;BME280;964;42.606;23.588;2023-04-09T02:53:34;94715.13;;;26.66;28.14
1926;BME280;964;42.606;23.588;2023-04-09T02:56:02;94704.06;;;27.37;27.26
1926;BME280;964;42.606;23.588;2023-04-09T02:58:29;94704.66;;;26.95;27.74
1926;BME280;964;42.606;23.588;2023-04-09T03:00:56;94712.13;;;27.67;27.03
1926;BME280;964;42.606;23.588;2023-04-09T03:03:23;94705.13;;;27.94;26.49
1926;BME280;964;42.606;23.588;2023-04-09T03:05:50;94700.91;;;27.47;27.21
1926;BME280;964;42.606;23.588;2023-04-09T03:08:17;94704.69;;;27.86;26.90
1926;BME280;964;42.606;23.588;2023-04-09T03:10:45;94703.63;;;27.93;26.71
1926;BME280;964;42.606;23.588;2023-04-09T03:13:12;94699.06;;;28.08;26.52
1926;BME280;964;42.606;23.588;2023-04-09T03:15:38;94703.50;;;27.60;27.01
1926;BME280;964;42.606;23.588;2023-04-09T03:18:05;94707.53;;;27.92;26.88
1926;BME280;964;42.606;23.588;2023-04-09T03:20:32;94703.47;;;27.78;27.06
1926;BME280;964;42.606;23.588;2023-04-09T03:22:59;94710.31;;;27.64;27.22
1926;BME280;964;42.606;23.588;2023-04-09T03:25:26;94718.41;;;25.56;29.73
1926;BME280;964;42.606;23.588;2023-04-09T03:27:54;94714.22;;;26.29;28.53
1926;BME280;964;42.606;23.588;2023-04-09T03:30:21;94705.56;;;26.92;28.10
1926;BME280;964;42.606;23.588;2023-04-09T03:32:48;94718.78;;;26.81;27.93
1926;BME280;964;42.606;23.588;2023-04-09T03:35:15;94716.47;;;27.19;27.72
1926;BME280;964;42.606;23.588;2023-04-09T03:37:42;94720.13;;;27.89;26.88
1926;BME280;964;42.606;23.588;2023-04-09T03:40:10;94708.31;;;28.52;26.08
1926;BME280;964;42.606;23.588;2023-04-09T03:42:37;94710.13;;;27.86;27.14
1926;BME280;964;42.606;23.588;2023-04-09T03:45:06;94724.88;;;26.54;28.43
1926;BME280;964;42.606;23.588;2023-04-09T03:47:33;94729.00;;;26.28;28.88
1926;BME280;964;42.606;23.588;2023-04-09T03:50:00;94722.22;;;26.72;28.08
1926;BME280;964;42.606;23.588;2023-04-09T03:52:27;94724.56;;;26.83;28.42
1926;BME280;964;42.606;23.588;2023-04-09T03:54:53;94742.84;;;25.77;29.30
1926;BME280;964;42.606;23.588;2023-04-09T03:57:20;94732.31;;;26.63;28.26
1926;BME280;964;42.606;23.588;2023-04-09T03:59:47;94737.84;;;25.98;29.59
1926;BME280;964;42.606;23.588;2023-04-09T04:02:16;94732.63;;;26.34;28.87
1926;BME280;964;42.606;23.588;2023-04-09T04:04:42;94734.53;;;25.72;29.71
1926;BME280;964;42.606;23.588;2023-04-09T04:07:09;94739.72;;;26.31;28.90
1926;BME280;964;42.606;23.588;2023-04-09T04:09:36;94737.06;;;26.41;29.15
1926;BME280;964;42.606;23.588;2023-04-09T04:12:03;94742.53;;;26.19;28.77
1926;BME280;964;42.606;23.588;2023-04-09T04:14:30;94738.78;;;26.56;28.77
1926;BME280;964;42.606;23.588;2023-04-09T04:16:57;94735.00;;;26.85;28.45
1926;BME280;964;42.606;23.588;2023-04-09T04:19:26;94731.47;;;27.88;27.19
1926;BME280;964;42.606;23.588;2023-04-09T04:21:53;94732.31;;;27.03;28.13
1926;BME280;964;42.606;23.588;2023-04-09T04:24:19;94723.75;;;27.77;27.48
1926;BME280;964;42.606;23.588;2023-04-09T04:26:46;94731.59;;;27.39;27.67
1926;BME280;964;42.606;23.588;2023-04-09T04:29:13;94744.56;;;26.67;28.49
1926;BME280;964;42.606;23.588;2023-04-09T04:31:40;94734.50;;;27.62;27.15
1926;BME280;964;42.606;23.588;2023-04-09T04:34:07;94735.88;;;26.20;29.15
1926;BME280;964;42.606;23.588;2023-04-09T04:36:36;94756.16;;;25.63;29.03
1926;BME280;964;42.606;23.588;2023-04-09T04:39:03;94753.75;;;25.30;29.77
1926;BME280;964;42.606;23.588;2023-04-09T04:41:30;94748.91;;;26.56;28.35
1926;BME280;964;42.606;23.588;2023-04-09T04:43:56;94755.50;;;25.59;29.71
1926;BME280;964;42.606;23.588;2023-04-09T04:46:23;94743.28;;;25.98;29.39
1926;BME280;964;42.606;23.588;2023-04-09T04:48:50;94747.81;;;26.53;28.12
1926;BME280;964;42.606;23.588;2023-04-09T04:51:17;94753.50;;;26.37;28.18
1926;BME280;964;42.606;23.588;2023-04-09T04:53:45;94748.47;;;26.26;28.43
1926;BME280;964;42.606;23.588;2023-04-09T04:56:12;94749.66;;;26.56;27.76
1926;BME280;964;42.606;23.588;2023-04-09T04:58:40;94751.63;;;26.03;28.85
1926;BME280;964;42.606;23.588;2023-04-09T05:01:07;94753.28;;;26.01;28.38
1926;BME280;964;42.606;23.588;2023-04-09T05:03:33;94760.56;;;25.69;29.08
1926;BME280;964;42.606;23.588;2023-04-09T05:06:00;94758.19;;;26.15;28.54
1926;BME280;964;42.606;23.588;2023-04-09T05:08:27;94759.97;;;26.70;27.79
1926;BME280;964;42.606;23.588;2023-04-09T05:10:56;94773.22;;;24.78;29.98
1926;BME280;964;42.606;23.588;2023-04-09T05:13:23;94777.34;;;24.96;29.53
1926;BME280;964;42.606;23.588;2023-04-09T05:15:50;94775.72;;;24.06;30.95
1926;BME280;964;42.606;23.588;2023-04-09T05:18:17;94780.50;;;23.57;31.38
1926;BME280;964;42.606;23.588;2023-04-09T05:20:43;94768.41;;;23.90;30.85
1926;BME280;964;42.606;23.588;2023-04-09T05:23:10;94774.38;;;23.85;31.16
1926;BME280;964;42.606;23.588;2023-04-09T05:25:37;94776.56;;;24.57;30.65
1926;BME280;964;42.606;23.588;2023-04-09T05:28:06;94761.47;;;25.88;28.67
1926;BME280;964;42.606;23.588;2023-04-09T05:30:35;94767.63;;;25.32;29.40
1926;BME280;964;42.606;23.588;2023-04-09T05:33:02;94771.53;;;25.31;29.11
1926;BME280;964;42.606;23.588;2023-04-09T05:35:29;94759.59;;;26.50;27.93
1926;BME280;964;42.606;23.588;2023-04-09T05:37:55;94764.44;;;25.00;29.26
1926;BME280;964;42.606;23.588;2023-04-09T05:40:22;94759.13;;;26.21;28.50
1926;BME280;964;42.606;23.588;2023-04-09T05:42:49;94752.25;;;26.29;27.62
1926;BME280;964;42.606;23.588;2023-04-09T05:45:18;94755.09;;;26.04;28.57
1926;BME280;964;42.606;23.588;2023-04-09T05:47:44;94758.44;;;25.64;29.05
1926;BME280;964;42.606;23.588;2023-04-09T05:50:11;94758.88;;;25.16;29.09
1926;BME280;964;42.606;23.588;2023-04-09T05:52:39;94757.94;;;26.22;28.24
1926;BME280;964;42.606;23.588;2023-04-09T05:55:07;94761.28;;;24.88;29.66
1926;BME280;964;42.606;23.588;2023-04-09T05:57:34;94747.44;;;27.13;27.58
1926;BME280;964;42.606;23.588;2023-04-09T06:00:01;94755.91;;;26.13;28.05
1926;BME280;964;42.606;23.588;2023-04-09T06:02:30;94761.84;;;26.21;28.29
1926;BME280;964;42.606;23.588;2023-04-09T06:04:56;94770.72;;;25.56;29.15
1926;BME280;964;42.606;23.588;2023-04-09T06:07:23;94770.16;;;26.48;27.73
1926;BME280;964;42.606;23.588;2023-04-09T06:09:50;94768.59;;;26.69;27.43
1926;BME280;964;42.606;23.588;2023-04-09T06:12:17;94761.03;;;26.33;28.00
1926;BME280;964;42.606;23.588;2023-04-09T06:14:46;94765.63;;;27.43;27.13
1926;BME280;964;42.606;23.588;2023-04-09T06:17:13;94762.09;;;26.14;28.21
1926;BME280;964;42.606;23.588;2023-04-09T06:19:41;94768.06;;;26.83;27.48
1926;BME280;964;42.606;23.588;2023-04-09T06:22:08;94773.09;;;25.89;27.98
1926;BME280;964;42.606;23.588;2023-04-09T06:24:36;94767.47;;;26.57;27.01
1926;BME280;964;42.606;23.588;2023-04-09T06:27:03;94773.97;;;25.85;28.15
1926;BME280;964;42.606;23.588;2023-04-09T06:29:30;94765.88;;;27.18;26.93
1926;BME280;964;42.606;23.588;2023-04-09T06:31:57;94769.31;;;27.86;26.65
1926;BME280;964;42.606;23.588;2023-04-09T06:34:23;94771.56;;;26.93;27.03
1926;BME280;964;42.606;23.588;2023-04-09T06:36:51;94781.94;;;26.23;27.89
1926;BME280;964;42.606;23.588;2023-04-09T06:39:19;94781.41;;;26.38;27.90
1926;BME280;964;42.606;23.588;2023-04-09T06:41:46;94791.75;;;26.21;27.94
1926;BME280;964;42.606;23.588;2023-04-09T06:44:13;94778.69;;;27.75;26.68
1926;BME280;964;42.606;23.588;2023-04-09T06:46:39;94784.28;;;27.05;26.75
1926;BME280;964;42.606;23.588;2023-04-09T06:49:06;94787.59;;;26.91;26.93
1926;BME280;964;42.606;23.588;2023-04-09T06:51:33;94797.25;;;26.61;27.09
1926;BME280;964;42.606;23.588;2023-04-09T06:54:01;94791.31;;;27.24;26.49
1926;BME280;964;42.606;23.588;2023-04-09T06:56:28;94782.91;;;27.58;26.89
1926;BME280;964;42.606;23.588;2023-04-09T06:58:55;94788.22;;;27.04;26.66
1926;BME280;964;42.606;23.588;2023-04-09T07:01:22;94791.81;;;26.30;27.42
1926;BME280;964;42.606;23.588;2023-04-09T07:03:49;94786.81;;;27.39;26.39
1926;BME280;964;42.606;23.588;2023-04-09T07:06:16;94788.03;;;27.47;26.38
1926;BME280;964;42.606;23.588;2023-04-09T07:08:43;94791.88;;;27.10;26.83
1926;BME280;964;42.606;23.588;2023-04-09T07:11:12;94799.84;;;27.04;26.75
1926;BME280;964;42.606;23.588;2023-04-09T07:13:41;94799.56;;;26.71;27.33
1926;BME280;964;42.606;23.588;2023-04-09T07:16:08;94782.91;;;27.95;25.63
1926;BME280;964;42.606;23.588;2023-04-09T07:18:35;94798.03;;;26.70;26.81
1926;BME280;964;42.606;23.588;2023-04-09T07:21:01;94791.06;;;28.04;25.56
1926;BME280;964;42.606;23.588;2023-04-09T07:23:28;94787.59;;;28.31;25.19
1926;BME280;964;42.606;23.588;2023-04-09T07:25:55;94801.69;;;26.76;26.47
1926;BME280;964;42.606;23.588;2023-04-09T07:28:24;94798.63;;;27.54;26.01
1926;BME280;964;42.606;23.588;2023-04-09T07:30:51;94807.88;;;26.99;26.64
1926;BME280;964;42.606;23.588;2023-04-09T07:33:18;94805.66;;;26.54;26.63
1926;BME280;964;42.606;23.588;2023-04-09T07:35:45;94810.75;;;26.21;27.73
1926;BME280;964;42.606;23.588;2023-04-09T07:38:12;94799.84;;;27.62;26.02
1926;BME280;964;42.606;23.588;2023-04-09T07:40:38;94806.25;;;26.79;26.64
1926;BME280;964;42.606;23.588;2023-04-09T07:43:05;94816.59;;;25.98;27.97
1926;BME280;964;42.606;23.588;2023-04-09T07:45:34;94806.94;;;26.71;26.62
1926;BME280;964;42.606;23.588;2023-04-09T07:48:00;94816.63;;;25.63;27.83
1926;BME280;964;42.606;23.588;2023-04-09T07:50:28;94811.16;;;26.94;26.88
1926;BME280;964;42.606;23.588;2023-04-09T07:52:55;94806.53;;;27.98;25.64
1926;BME280;964;42.606;23.588;2023-04-09T07:55:22;94806.22;;;28.92;25.02
1926;BME280;964;42.606;23.588;2023-04-09T07:57:48;94807.72;;;27.69;26.31
1926;BME280;964;42.606;23.588;2023-04-09T08:00:16;94811.13;;;27.34;26.46
1926;BME280;964;42.606;23.588;2023-04-09T08:02:45;94798.88;;;28.56;25.05
1926;BME280;964;42.606;23.588;2023-04-09T08:05:12;94802.91;;;28.01;26.15
1926;BME280;964;42.606;23.588;2023-04-09T08:07:38;94809.59;;;27.33;26.61
1926;BME280;964;42.606;23.588;2023-04-09T08:10:06;94809.69;;;27.11;26.58
1926;BME280;964;42.606;23.588;2023-04-09T08:12:38;94808.13;;;26.30;26.80
1926;BME280;964;42.606;23.588;2023-04-09T08:15:05;94797.25;;;28.41;25.19
1926;BME280;964;42.606;23.588;2023-04-09T08:17:32;94799.00;;;29.04;24.88
1926;BME280;964;42.606;23.588;2023-04-09T08:20:02;94809.53;;;28.27;25.04
1926;BME280;964;42.606;23.588;2023-04-09T08:22:29;94802.31;;;28.15;25.29
1926;BME280;964;42.606;23.588;2023-04-09T08:24:56;94802.94;;;28.61;24.61
1926;BME280;964;42.606;23.588;2023-04-09T08:27:23;94790.25;;;30.33;23.80
1926;BME280;964;42.606;23.588;2023-04-09T08:29:50;94792.84;;;28.43;24.64
1926;BME280;964;42.606;23.588;2023-04-09T08:32:17;94788.25;;;30.19;23.92
1926;BME280;964;42.606;23.588;2023-04-09T08:34:44;94796.53;;;28.22;25.33
1926;BME280;964;42.606;23.588;2023-04-09T08:37:12;94800.44;;;29.23;24.27
1926;BME280;964;42.606;23.588;2023-04-09T08:39:40;94795.13;;;29.52;23.98
1926;BME280;964;42.606;23.588;2023-04-09T08:42:08;94797.38;;;28.55;24.75
1926;BME280;964;42.606;23.588;2023-04-09T08:44:37;94801.00;;;27.25;25.96
1926;BME280;964;42.606;23.588;2023-04-09T08:47:07;94784.16;;;29.05;24.14
1926;BME280;964;42.606;23.588;2023-04-09T08:49:36;94783.50;;;29.66;23.53
1926;BME280;964;42.606;23.588;2023-04-09T08:52:04;94775.34;;;30.34;23.45
1926;BME280;964;42.606;23.588;2023-04-09T08:54:34;94770.13;;;30.95;22.39
1926;BME280;964;42.606;23.588;2023-04-09T08:57:04;94762.09;;;30.91;22.29
1926;BME280;964;42.606;23.588;2023-04-09T08:59:37;94766.56;;;32.04;21.74
1926;BME280;964;42.606;23.588;2023-04-09T09:02:18;94758.47;;;33.10;20.84
1926;BME280;964;42.606;23.588;2023-04-09T09:04:45;94755.88;;;32.32;20.98
1926;BME280;964;42.606;23.588;2023-04-09T09:07:13;94752.09;;;31.58;21.89
1926;BME280;964;42.606;23.588;2023-04-09T09:09:51;94751.75;;;33.11;20.57
1926;BME280;964;42.606;23.588;2023-04-09T09:12:32;94753.38;;;31.83;21.07
1926;BME280;964;42.606;23.588;2023-04-09T09:15:00;94749.06;;;31.76;21.92
1926;BME280;964;42.606;23.588;2023-04-09T09:17:27;94745.69;;;31.67;21.51
1926;BME280;964;42.606;23.588;2023-04-09T09:19:54;94747.41;;;29.62;23.41
1926;BME280;964;42.606;23.588;2023-04-09T09:22:21;94742.66;;;31.44;22.49
1926;BME280;964;42.606;23.588;2023-04-09T09:24:49;94745.69;;;30.42;22.31
1926;BME280;964;42.606;23.588;2023-04-09T09:27:34;94733.50;;;31.07;21.92
1926;BME280;964;42.606;23.588;2023-04-09T09:30:05;94734.63;;;31.00;21.70
1926;BME280;964;42.606;23.588;2023-04-09T09:32:33;94742.53;;;30.34;22.91
1926;BME280;964;42.606;23.588;2023-04-09T09:35:01;94729.81;;;29.63;23.01
1926;BME280;964;42.606;23.588;2023-04-09T09:37:28;94729.03;;;31.09;22.38
1926;BME280;964;42.606;23.588;2023-04-09T09:39:55;94707.63;;;33.20;20.57
1926;BME280;964;42.606;23.588;2023-04-09T09:42:23;94714.56;;;31.90;20.99
1926;BME280;964;42.606;23.588;2023-04-09T09:44:52;94711.34;;;31.66;21.33
1926;BME280;964;42.606;23.588;2023-04-09T09:47:20;94721.66;;;31.76;21.60
1926;BME280;964;42.606;23.588;2023-04-09T09:49:47;94712.19;;;32.29;21.14
1926;BME280;964;42.606;23.588;2023-04-09T09:52:19;94700.25;;;32.32;20.77
1926;BME280;964;42.606;23.588;2023-04-09T09:54:47;94702.34;;;33.16;20.47
1926;BME280;964;42.606;23.588;2023-04-09T09:57:18;94693.31;;;33.10;19.92
1926;BME280;964;42.606;23.588;2023-04-09T09:59:50;94704.06;;;30.87;21.07
1926;BME280;964;42.606;23.588;2023-04-09T10:02:22;94695.25;;;33.46;19.75
1926;BME280;964;42.606;23.588;2023-04-09T10:04:51;94690.22;;;34.26;19.36
1926;BME280;964;42.606;23.588;2023-04-09T10:07:19;94695.97;;;32.93;20.64
1926;BME280;964;42.606;23.588;2023-04-09T10:09:49;94696.66;;;31.69;20.63
1926;BME280;964;42.606;23.588;2023-04-09T10:12:18;94695.84;;;31.42;20.31
1926;BME280;964;42.606;23.588;2023-04-09T10:14:48;94688.13;;;32.44;19.76
1926;BME280;964;42.606;23.588;2023-04-09T10:17:16;94687.97;;;32.53;19.58
1926;BME280;964;42.606;23.588;2023-04-09T10:19:48;94686.47;;;31.95;19.67
1926;BME280;964;42.606;23.588;2023-04-09T10:22:22;94690.06;;;32.64;19.36
1926;BME280;964;42.606;23.588;2023-04-09T10:24:51;94692.34;;;30.87;19.32
1926;BME280;964;42.606;23.588;2023-04-09T10:27:20;94686.81;;;30.46;20.01
1926;BME280;964;42.606;23.588;2023-04-09T10:29:48;94690.22;;;31.31;19.59
1926;BME280;964;42.606;23.588;2023-04-09T10:32:17;94683.66;;;31.64;19.89
1926;BME280;964;42.606;23.588;2023-04-09T10:34:48;94681.28;;;32.02;19.82
1926;BME280;964;42.606;23.588;2023-04-09T10:37:20;94677.25;;;33.45;18.61
1926;BME280;964;42.606;23.588;2023-04-09T10:39:48;94680.44;;;31.91;19.14
1926;BME280;964;42.606;23.588;2023-04-09T10:42:18;94677.41;;;30.67;19.31
1926;BME280;964;42.606;23.588;2023-04-09T10:45:03;94675.09;;;31.56;19.26
1926;BME280;964;42.606;23.588;2023-04-09T10:47:31;94668.38;;;32.34;18.31
1926;BME280;964;42.606;23.588;2023-04-09T10:50:13;94682.66;;;30.36;19.89
1926;BME280;964;42.606;23.588;2023-04-09T10:52:40;94674.16;;;30.84;19.41
1926;BME280;964;42.606;23.588;2023-04-09T10:55:08;94658.00;;;32.49;18.95
1926;BME280;964;42.606;23.588;2023-04-09T10:57:36;94658.19;;;31.57;18.95
1926;BME280;964;42.606;23.588;2023-04-09T11:00:03;94678.25;;;30.74;19.22
1926;BME280;964;42.606;23.588;2023-04-09T11:02:53;94661.69;;;30.83;19.30
1926;BME280;964;42.606;23.588;2023-04-09T11:05:31;94673.50;;;29.04;19.65
1926;BME280;964;42.606;23.588;2023-04-09T11:08:04;94662.75;;;29.62;19.83
1926;BME280;964;42.606;23.588;2023-04-09T11:10:31;94655.81;;;30.20;19.60
1926;BME280;964;42.606;23.588;2023-04-09T11:12:59;94665.41;;;29.33;20.15
1926;BME280;964;42.606;23.588;2023-04-09T11:15:26;94651.41;;;30.92;18.83
1926;BME280;964;42.606;23.588;2023-04-09T11:17:53;94658.00;;;30.01;18.94
1926;BME280;964;42.606;23.588;2023-04-09T11:20:23;94656.72;;;30.17;19.24
1926;BME280;964;42.606;23.588;2023-04-09T11:22:53;94652.22;;;30.78;18.92
1926;BME280;964;42.606;23.588;2023-04-09T11:25:21;94645.03;;;31.01;18.80
1926;BME280;964;42.606;23.588;2023-04-09T11:27:49;94650.09;;;29.36;19.48
1926;BME280;964;42.606;23.588;2023-04-09T11:30:16;94650.03;;;29.21;19.45
1926;BME280;964;42.606;23.588;2023-04-09T11:32:43;94639.97;;;29.95;19.05
1926;BME280;964;42.606;23.588;2023-04-09T11:35:11;94639.50;;;30.60;18.97
1926;BME280;964;42.606;23.588;2023-04-09T11:37:39;94631.16;;;31.25;17.72
1926;BME280;964;42.606;23.588;2023-04-09T11:40:14;94628.94;;;32.00;17.81
1926;BME280;964;42.606;23.588;2023-04-09T11:42:42;94623.22;;;33.15;17.72
1926;BME280;964;42.606;23.588;2023-04-09T11:45:10;94639.03;;;30.42;18.87
1926;BME280;964;42.606;23.588;2023-04-09T11:47:38;94620.59;;;31.58;18.31
1926;BME280;964;42.606;23.588;2023-04-09T11:50:07;94636.16;;;29.48;19.31
1926;BME280;964;42.606;23.588;2023-04-09T11:52:35;94622.69;;;30.47;18.76
1926;BME280;964;42.606;23.588;2023-04-09T11:55:02;94618.06;;;31.54;18.01
1926;BME280;964;42.606;23.588;2023-04-09T11:57:43;94611.16;;;30.78;18.72
1926;BME280;964;42.606;23.588;2023-04-09T12:00:12;94615.47;;;30.85;18.95
1926;BME280;964;42.606;23.588;2023-04-09T12:02:44;94617.63;;;30.60;18.85
1926;BME280;964;42.606;23.588;2023-04-09T12:05:19;94600.75;;;32.00;17.50
1926;BME280;964;42.606;23.588;2023-04-09T12:07:47;94596.00;;;32.26;18.13
1926;BME280;964;42.606;23.588;2023-04-09T12:10:14;94614.47;;;30.47;19.39
1926;BME280;964;42.606;23.588;2023-04-09T12:12:44;94605.38;;;31.88;17.93
1926;BME280;964;42.606;23.588;2023-04-09T12:15:18;94600.38;;;31.55;18.14
1926;BME280;964;42.606;23.588;2023-04-09T12:17:47;94605.72;;;32.27;18.30
1926;BME280;964;42.606;23.588;2023-04-09T12:20:35;94603.88;;;32.98;17.87
1926;BME280;964;42.606;23.588;2023-04-09T12:23:04;94605.00;;;30.63;19.09
1926;BME280;964;42.606;23.588;2023-04-09T12:25:33;94613.00;;;30.17;19.49
1926;BME280;964;42.606;23.588;2023-04-09T12:28:02;94602.13;;;30.92;18.98
1926;BME280;964;42.606;23.588;2023-04-09T12:30:30;94595.88;;;31.32;19.38
1926;BME280;964;42.606;23.588;2023-04-09T12:32:57;94610.59;;;30.39;19.83
1926;BME280;964;42.606;23.588;2023-04-09T12:35:24;94594.88;;;31.55;19.04
1926;BME280;964;42.606;23.588;2023-04-09T12:37:51;94598.72;;;30.28;19.87
1926;BME280;964;42.606;23.588;2023-04-09T12:40:19;94610.13;;;29.23;20.73
1926;BME280;964;42.606;23.588;2023-04-09T12:42:46;94610.16;;;29.38;20.95
1926;BME280;964;42.606;23.588;2023-04-09T12:45:17;94600.66;;;30.97;19.67
1926;BME280;964;42.606;23.588;2023-04-09T12:47:44;94610.94;;;29.53;20.38
1926;BME280;964;42.606;23.588;2023-04-09T12:50:12;94592.38;;;32.09;19.07
1926;BME280;964;42.606;23.588;2023-04-09T12:52:40;94605.97;;;31.00;19.85
1926;BME280;964;42.606;23.588;2023-04-09T12:55:09;94602.44;;;30.10;20.16
1926;BME280;964;42.606;23.588;2023-04-09T12:57:36;94602.84;;;31.53;20.34
1926;BME280;964;42.606;23.588;2023-04-09T13:00:04;94601.88;;;30.21;20.97
1926;BME280;964;42.606;23.588;2023-04-09T13:02:33;94598.88;;;30.18;21.40
1926;BME280;964;42.606;23.588;2023-04-09T13:05:00;94598.88;;;30.53;20.87
1926;BME280;964;42.606;23.588;2023-04-09T13:07:27;94584.63;;;31.04;21.07
1926;BME280;964;42.606;23.588;2023-04-09T13:09:55;94591.66;;;30.91;20.80
1926;BME280;964;42.606;23.588;2023-04-09T13:12:22;94588.63;;;30.48;20.72
1926;BME280;964;42.606;23.588;2023-04-09T13:14:51;94587.00;;;29.34;22.18
1926;BME280;964;42.606;23.588;2023-04-09T13:17:18;94591.53;;;29.95;21.89
1926;BME280;964;42.606;23.588;2023-04-09T13:19:46;94581.66;;;31.28;20.58
1926;BME280;964;42.606;23.588;2023-04-09T13:22:13;94582.88;;;30.46;21.38
1926;BME280;964;42.606;23.588;2023-04-09T13:24:40;94587.72;;;30.22;22.03
1926;BME280;964;42.606;23.588;2023-04-09T13:27:07;94583.66;;;32.11;20.08
1926;BME280;964;42.606;23.588;2023-04-09T13:29:34;94587.69;;;30.51;21.31